Time;durP1;ratioP1;P1;durP2;ratioP2;P2;SDS_P1;SDS_P2;PMS_P1;PMS_P2;Temp;Humidity;BMP_temperature;BMP_pressure;BME280_temperature;BME280_humidity;BME280_pressure;Samples;Min_cycle;Max_cycle;Signal;HPM_P1;HPM_P2
2023/05/25 00:00:27;;;;;;;6.70;3.45;;;;;;;12.43;52.64;97692.69;4894793;28;20383;-82
2023/05/25 00:02:54;;;;;;;7.95;3.65;;;;;;;12.35;53.28;97695.72;4882339;28;20167;-81
2023/05/25 00:05:19;;;;;;;8.52;3.38;;;;;;;12.30;53.80;97700.88;4866196;28;20329;-83
2023/05/25 00:07:45;;;;;;;6.15;3.90;;;;;;;12.18;53.52;97690.56;4910994;28;20600;-83
2023/05/25 00:10:11;;;;;;;11.13;3.80;;;;;;;12.21;53.91;97694.50;4897851;28;20186;-82
2023/05/25 00:12:36;;;;;;;8.05;2.92;;;;;;;12.11;53.40;97688.13;4892642;28;20285;-82
2023/05/25 00:15:04;;;;;;;10.27;3.20;;;;;;;12.15;53.80;97686.63;4878910;28;20508;-84
2023/05/25 00:17:30;;;;;;;8.43;4.10;;;;;;;12.15;53.44;97672.78;4889036;28;20329;-82
2023/05/25 00:20:08;;;;;;;7.80;3.47;;;;;;;12.14;53.55;97692.06;4873732;28;20541;-82
2023/05/25 00:22:37;;;;;;;10.50;3.28;;;;;;;12.23;53.47;97688.00;4885218;28;20183;-80
2023/05/25 00:25:04;;;;;;;9.63;3.78;;;;;;;12.12;53.89;97694.16;4870572;28;20198;-81
2023/05/25 00:27:30;;;;;;;7.85;3.58;;;;;;;12.04;54.08;97673.66;4853405;28;20280;-81
2023/05/25 00:29:56;;;;;;;6.90;3.50;;;;;;;12.00;54.06;97683.81;4856793;28;20337;-81
2023/05/25 00:32:22;;;;;;;9.75;3.35;;;;;;;11.89;54.43;97682.03;4871945;28;20358;-81
2023/05/25 00:34:47;;;;;;;6.43;3.20;;;;;;;11.82;54.20;97671.78;4886920;28;20538;-80
2023/05/25 00:37:13;;;;;;;7.22;3.42;;;;;;;11.79;54.66;97691.31;4889328;28;20582;-81
2023/05/25 00:39:39;;;;;;;10.35;4.05;;;;;;;11.76;54.93;97688.41;4860296;28;20238;-81
2023/05/25 00:42:06;;;;;;;9.00;4.15;;;;;;;11.72;55.09;97677.66;4886849;28;20520;-83
2023/05/25 00:44:31;;;;;;;9.80;3.78;;;;;;;11.69;54.74;97688.56;4858425;28;20285;-82
2023/05/25 00:46:57;;;;;;;8.23;3.08;;;;;;;11.58;55.84;97684.22;4894126;28;20167;-81
2023/05/25 00:49:22;;;;;;;5.30;3.13;;;;;;;11.62;55.98;97690.53;4905691;28;20521;-83
2023/05/25 00:51:50;;;;;;;12.45;3.85;;;;;;;11.54;55.96;97688.34;4870401;28;20413;-81
2023/05/25 00:54:16;;;;;;;8.82;3.67;;;;;;;11.61;55.14;97683.75;4899462;28;20348;-81
2023/05/25 00:56:46;;;;;;;7.32;3.67;;;;;;;11.64;55.72;97678.06;4905894;28;20199;-82
2023/05/25 00:59:16;;;;;;;7.00;3.35;;;;;;;11.68;55.87;97686.97;4856347;28;20297;-84
2023/05/25 01:04:12;;;;;;;7.80;3.75;;;;;;;11.47;56.87;97690.31;4918817;28;20950;-77
2023/05/25 01:06:38;;;;;;;9.18;3.92;;;;;;;11.27;56.81;97696.75;4907951;28;20695;-77
2023/05/25 01:09:04;;;;;;;8.57;3.60;;;;;;;11.27;56.78;97683.72;4922163;28;20216;-78
2023/05/25 01:11:39;;;;;;;9.48;3.70;;;;;;;11.34;56.81;97694.78;4917248;28;20693;-78
2023/05/25 01:14:05;;;;;;;5.72;3.22;;;;;;;11.34;56.99;97694.78;4921637;28;20216;-77
2023/05/25 01:16:30;;;;;;;11.13;3.63;;;;;;;11.36;56.38;97695.38;4890288;28;20178;-78
2023/05/25 01:18:56;;;;;;;7.57;3.42;;;;;;;11.17;57.49;97700.00;4925054;28;20205;-78
2023/05/25 01:21:30;;;;;;;7.35;2.92;;;;;;;11.31;57.71;97695.28;4909783;28;20254;-77
2023/05/25 01:24:01;;;;;;;7.75;3.55;;;;;;;11.36;56.91;97695.38;4926980;28;20583;-78
2023/05/25 01:26:28;;;;;;;7.53;2.90;;;;;;;11.34;57.24;97681.75;4908825;28;20583;-77
2023/05/25 01:28:54;;;;;;;8.00;3.38;;;;;;;11.30;57.26;97695.50;4908920;28;20192;-78
2023/05/25 01:31:22;;;;;;;9.57;3.20;;;;;;;11.42;57.14;97689.19;4923611;28;21043;-79
2023/05/25 01:33:51;;;;;;;10.90;3.60;;;;;;;11.48;56.96;97694.47;4910140;28;20193;-79
2023/05/25 01:36:17;;;;;;;8.20;3.47;;;;;;;11.46;57.29;97697.31;4913895;28;20645;-77
2023/05/25 01:38:43;;;;;;;10.05;3.83;;;;;;;11.31;57.41;97684.84;4903563;28;20307;-77
2023/05/25 01:41:08;;;;;;;6.82;3.20;;;;;;;11.40;57.48;97701.69;4927960;28;20321;-78
2023/05/25 01:43:33;;;;;;;9.90;3.63;;;;;;;11.49;57.10;97699.47;4924962;28;20220;-78
2023/05/25 01:46:17;;;;;;;7.95;4.15;;;;;;;11.56;57.31;97702.69;4928533;28;20667;-77
2023/05/25 01:49:28;;;;;;;7.85;3.28;;;;;;;11.67;56.93;97705.47;4914714;28;20302;-78
2023/05/25 01:52:13;;;;;;;8.48;4.15;;;;;;;11.51;56.59;97709.66;4935289;28;20307;-77
2023/05/25 01:54:44;;;;;;;6.45;3.47;;;;;;;11.58;57.06;97707.69;4925282;28;20170;-78
2023/05/25 01:57:11;;;;;;;9.32;3.20;;;;;;;11.65;56.90;97712.75;4919818;28;20255;-78
2023/05/25 01:59:37;;;;;;;7.10;3.60;;;;;;;11.53;57.03;97712.81;4929484;28;20192;-78
2023/05/25 02:02:04;;;;;;;9.85;4.32;;;;;;;11.30;58.14;97714.53;4925274;28;20666;-77
2023/05/25 02:04:30;;;;;;;8.00;4.32;;;;;;;11.20;58.08;97701.34;4926799;28;20170;-77
2023/05/25 02:06:55;;;;;;;6.50;2.90;;;;;;;11.28;57.85;97708.78;4925210;28;20231;-77
2023/05/25 02:09:21;;;;;;;6.80;3.45;;;;;;;11.22;58.28;97694.88;4928420;28;20264;-78
2023/05/25 02:11:47;;;;;;;8.32;3.58;;;;;;;11.31;58.27;97703.09;4905803;28;20201;-77
2023/05/25 02:14:13;;;;;;;9.57;2.90;;;;;;;11.33;58.37;97710.69;4913756;28;20174;-77
2023/05/25 02:16:39;;;;;;;8.55;3.83;;;;;;;11.30;58.45;97701.50;4911382;28;20200;-77
2023/05/25 02:19:04;;;;;;;7.80;3.63;;;;;;;11.06;59.05;97698.22;4913493;28;20216;-78
2023/05/25 02:21:30;;;;;;;7.05;3.20;;;;;;;11.08;59.30;97701.41;4912479;28;20201;-79
2023/05/25 02:23:56;;;;;;;8.52;4.05;;;;;;;11.14;59.31;97707.47;4927976;28;20362;-78
2023/05/25 02:26:22;;;;;;;5.85;3.30;;;;;;;11.24;59.14;97697.22;4914170;28;20192;-77
2023/05/25 02:28:48;;;;;;;7.63;3.50;;;;;;;11.28;59.03;97690.53;4908016;28;20318;-78
2023/05/25 02:31:13;;;;;;;7.63;3.38;;;;;;;11.09;59.58;97695.16;4926116;28;20075;-78
2023/05/25 02:33:39;;;;;;;7.57;3.38;;;;;;;11.05;59.58;97694.84;4912698;28;20193;-78
2023/05/25 02:36:04;;;;;;;11.20;3.78;;;;;;;10.84;60.37;97677.25;4897597;28;20217;-78
2023/05/25 02:38:30;;;;;;;7.53;3.42;;;;;;;10.96;59.91;97696.22;4913272;28;20276;-78
2023/05/25 02:40:55;;;;;;;7.13;3.78;;;;;;;11.12;59.78;97680.88;4929085;28;20235;-77
2023/05/25 02:43:20;;;;;;;10.57;4.15;;;;;;;11.10;59.67;97690.75;4928234;28;20303;-77
2023/05/25 02:45:46;;;;;;;6.05;3.47;;;;;;;11.08;59.75;97683.16;4906019;28;20323;-78
2023/05/25 02:48:11;;;;;;;8.75;4.05;;;;;;;11.20;59.62;97690.91;4909372;28;20586;-78
2023/05/25 02:50:37;;;;;;;9.30;3.67;;;;;;;10.93;60.77;97675.84;4928859;28;20176;-78
2023/05/25 02:53:03;;;;;;;6.38;3.45;;;;;;;10.90;61.16;97685.94;4905087;28;20229;-77
2023/05/25 02:55:28;;;;;;;10.50;3.63;;;;;;;11.00;61.23;97691.34;4929027;28;20295;-78
2023/05/25 02:57:54;;;;;;;10.07;3.60;;;;;;;10.98;60.91;97690.78;4909565;28;20284;-78
2023/05/25 03:00:19;;;;;;;5.65;3.30;;;;;;;10.87;61.34;97689.81;4909455;28;20808;-78
2023/05/25 03:02:47;;;;;;;8.90;3.97;;;;;;;10.78;61.78;97689.41;4908173;28;20219;-77
2023/05/25 03:05:14;;;;;;;9.13;4.07;;;;;;;10.95;61.70;97699.88;4912660;28;20177;-79
2023/05/25 03:07:40;;;;;;;8.27;3.88;;;;;;;10.98;61.62;97688.97;4923644;28;20313;-78
2023/05/25 03:10:06;;;;;;;7.80;3.67;;;;;;;10.92;61.17;97678.72;4926717;28;20354;-77
2023/05/25 03:12:32;;;;;;;7.75;3.35;;;;;;;10.86;61.45;97686.44;4911716;28;20368;-79
2023/05/25 03:14:57;;;;;;;8.07;3.90;;;;;;;10.95;61.08;97686.84;4901809;28;20276;-78
2023/05/25 03:17:22;;;;;;;6.35;3.22;;;;;;;10.83;61.75;97680.88;4907844;28;20226;-79
2023/05/25 03:19:48;;;;;;;5.78;3.40;;;;;;;10.77;61.68;97687.03;4919851;28;20167;-78
2023/05/25 03:22:13;;;;;;;10.43;3.88;;;;;;;10.81;61.91;97694.16;4929325;28;20184;-78
2023/05/25 03:24:40;;;;;;;6.25;3.90;;;;;;;10.85;62.27;97703.09;4898773;28;20239;-78
2023/05/25 03:27:07;;;;;;;7.45;3.45;;;;;;;10.77;62.15;97700.06;4929611;28;20189;-78
2023/05/25 03:29:32;;;;;;;6.13;3.42;;;;;;;10.68;62.75;97699.63;4908592;28;20584;-79
2023/05/25 03:31:58;;;;;;;10.05;4.43;;;;;;;10.78;62.42;97693.81;4906115;28;20106;-77
2023/05/25 03:34:23;;;;;;;6.50;3.80;;;;;;;10.93;62.48;97714.16;4910158;28;20282;-78
2023/05/25 03:36:49;;;;;;;10.32;3.75;;;;;;;10.94;62.42;97713.13;4905180;28;20279;-78
2023/05/25 03:39:14;;;;;;;8.63;4.07;;;;;;;10.96;62.42;97709.25;4925737;28;20179;-77
2023/05/25 03:41:41;;;;;;;6.97;4.10;;;;;;;10.81;62.71;97701.16;4910398;28;20328;-77
2023/05/25 03:44:09;;;;;;;8.77;4.13;;;;;;;11.01;62.07;97708.56;4910902;28;20718;-78
2023/05/25 03:46:35;;;;;;;8.30;4.47;;;;;;;10.88;62.70;97714.84;4924226;28;20143;-78
2023/05/25 03:49:00;;;;;;;6.32;3.90;;;;;;;10.66;63.47;97723.31;4911216;28;20114;-78
2023/05/25 03:51:26;;;;;;;7.97;4.18;;;;;;;10.46;64.50;97707.28;4926725;28;20213;-77
2023/05/25 03:53:52;;;;;;;9.13;4.57;;;;;;;10.61;63.73;97710.19;4917847;28;20643;-78
2023/05/25 03:56:17;;;;;;;11.98;4.30;;;;;;;10.74;63.83;97713.53;4912913;28;20095;-77
2023/05/25 03:58:43;;;;;;;7.45;4.00;;;;;;;10.62;63.69;97716.19;4926612;28;20197;-78
2023/05/25 04:01:09;;;;;;;8.38;3.70;;;;;;;10.53;64.58;97715.75;4926498;28;20163;-78
2023/05/25 04:03:34;;;;;;;10.45;3.78;;;;;;;10.19;65.15;97718.16;4902701;28;20177;-77
2023/05/25 04:06:00;;;;;;;12.10;4.25;;;;;;;10.70;64.10;97730.66;4940257;28;20282;-78
2023/05/25 04:08:27;;;;;;;16.50;5.43;;;;;;;10.74;63.32;97742.19;4904094;28;20582;-77
2023/05/25 04:10:52;;;;;;;7.55;4.13;;;;;;;10.87;62.94;97739.31;4911706;28;20710;-77
2023/05/25 04:13:18;;;;;;;11.57;4.22;;;;;;;10.97;63.42;97736.91;4912599;28;20306;-78
2023/05/25 04:15:43;;;;;;;9.63;4.63;;;;;;;10.97;62.90;97731.69;4909290;28;20275;-78
2023/05/25 04:18:09;;;;;;;10.07;3.95;;;;;;;11.00;62.66;97733.84;4904438;28;20249;-78
2023/05/25 04:20:35;;;;;;;8.70;3.75;;;;;;;11.02;62.94;97742.22;4926000;28;20316;-77
2023/05/25 04:23:00;;;;;;;7.70;4.22;;;;;;;11.17;62.68;97749.53;4925645;28;20208;-78
2023/05/25 04:25:25;;;;;;;8.57;4.45;;;;;;;11.23;62.89;97748.56;4923538;28;20209;-78
2023/05/25 04:27:52;;;;;;;9.25;5.10;;;;;;;11.36;62.39;97759.72;4910701;28;20574;-77
2023/05/25 04:30:18;;;;;;;10.77;4.00;;;;;;;11.39;62.64;97761.88;4908548;28;20173;-77
2023/05/25 04:32:44;;;;;;;7.90;3.78;;;;;;;11.47;62.24;97763.31;4935930;28;20214;-78
2023/05/25 04:35:10;;;;;;;9.32;4.28;;;;;;;11.47;61.64;97760.72;4909177;28;20320;-78
2023/05/25 04:37:35;;;;;;;10.90;4.35;;;;;;;11.52;61.87;97763.41;4906878;28;20112;-78
2023/05/25 04:40:05;;;;;;;8.18;4.40;;;;;;;11.34;62.75;97759.97;4916178;28;20346;-78
2023/05/25 04:42:31;;;;;;;8.52;3.70;;;;;;;11.42;62.32;97756.97;4904861;28;20379;-78
2023/05/25 04:44:57;;;;;;;6.90;4.07;;;;;;;11.57;61.96;97766.09;4907655;28;20694;-78
2023/05/25 04:47:23;;;;;;;10.38;4.78;;;;;;;11.44;62.22;97759.34;4924155;28;20523;-77
2023/05/25 04:49:49;;;;;;;9.77;4.20;;;;;;;11.50;62.43;97768.84;4908517;28;20208;-78
2023/05/25 04:52:14;;;;;;;8.00;4.50;;;;;;;11.52;62.20;97776.44;4904182;28;20241;-79
2023/05/25 04:54:40;;;;;;;10.32;4.63;;;;;;;11.79;61.66;97782.63;4922677;28;20221;-77
2023/05/25 04:57:06;;;;;;;10.07;4.60;;;;;;;11.71;61.69;97769.19;4905512;28;20026;-78
2023/05/25 04:59:31;;;;;;;10.15;4.50;;;;;;;11.85;61.39;97769.66;4904797;28;20178;-79
2023/05/25 05:01:56;;;;;;;8.80;4.22;;;;;;;11.67;61.67;97781.09;4907391;28;20299;-77
2023/05/25 05:04:22;;;;;;;8.70;4.20;;;;;;;11.83;61.60;97782.94;4941093;28;20690;-78
2023/05/25 05:06:47;;;;;;;9.43;4.50;;;;;;;11.98;60.84;97779.81;4902793;28;20182;-78
2023/05/25 05:09:13;;;;;;;11.50;4.05;;;;;;;12.06;60.82;97786.44;4908222;28;20276;-78
2023/05/25 05:11:38;;;;;;;8.23;4.20;;;;;;;11.99;61.09;97781.38;4919851;28;20182;-79
2023/05/25 05:14:04;;;;;;;11.15;4.00;;;;;;;12.11;60.62;97794.34;4914622;28;20291;-77
2023/05/25 05:16:33;;;;;;;10.85;5.20;;;;;;;12.16;60.61;97786.59;4921472;28;20275;-77
2023/05/25 05:18:58;;;;;;;9.65;3.85;;;;;;;12.14;60.62;97789.44;4905704;28;20248;-78
2023/05/25 05:21:24;;;;;;;9.60;5.18;;;;;;;12.33;59.72;97795.19;4924527;28;20282;-78
2023/05/25 05:23:50;;;;;;;10.35;4.70;;;;;;;12.39;59.85;97800.47;4918891;28;20278;-79
2023/05/25 05:26:15;;;;;;;9.52;4.50;;;;;;;12.59;59.08;97794.75;4891440;28;20611;-79
2023/05/25 05:28:41;;;;;;;8.02;3.47;;;;;;;12.36;59.45;97794.72;4908746;28;20653;-77
2023/05/25 05:31:07;;;;;;;7.82;3.90;;;;;;;12.69;59.13;97802.72;4908369;28;20280;-77
2023/05/25 05:33:32;;;;;;;6.90;3.58;;;;;;;12.79;58.20;97794.22;4899900;28;20576;-78
2023/05/25 05:35:58;;;;;;;9.75;4.05;;;;;;;12.64;58.54;97798.22;4907774;28;20278;-78
2023/05/25 05:38:23;;;;;;;6.57;3.70;;;;;;;12.80;58.45;97804.44;4906533;28;20399;-77
2023/05/25 05:40:49;;;;;;;8.25;3.90;;;;;;;12.88;58.26;97806.59;4922429;28;20212;-79
2023/05/25 05:43:14;;;;;;;8.15;4.07;;;;;;;13.15;57.74;97805.88;4902376;28;20240;-78
2023/05/25 05:45:40;;;;;;;9.52;3.95;;;;;;;13.09;57.47;97806.84;4906274;28;20220;-78
2023/05/25 05:48:09;;;;;;;7.43;4.43;;;;;;;13.19;57.07;97803.56;4904793;28;20383;-80
2023/05/25 05:50:37;;;;;;;6.70;3.58;;;;;;;13.44;56.07;97810.91;4899636;28;20182;-80
2023/05/25 05:53:03;;;;;;;6.88;3.40;;;;;;;13.44;56.20;97810.91;4926349;28;20395;-79
2023/05/25 05:55:29;;;;;;;5.72;3.88;;;;;;;13.52;55.57;97812.28;4908000;28;20634;-78
2023/05/25 05:57:55;;;;;;;6.22;3.13;;;;;;;13.72;55.00;97817.69;4906229;28;20190;-79
2023/05/25 06:00:20;;;;;;;10.68;3.83;;;;;;;13.97;54.41;97805.88;4924895;28;20295;-78
2023/05/25 06:02:46;;;;;;;9.43;3.92;;;;;;;13.95;53.99;97810.56;4901837;28;20175;-78
2023/05/25 06:05:11;;;;;;;8.48;3.72;;;;;;;14.13;53.68;97812.00;4885990;28;20206;-80
2023/05/25 06:07:37;;;;;;;6.97;2.85;;;;;;;14.19;53.71;97811.03;4902381;28;20109;-78
2023/05/25 06:10:04;;;;;;;6.90;3.28;;;;;;;14.60;53.14;97813.91;4903609;28;20248;-79
2023/05/25 06:12:29;;;;;;;7.50;2.72;;;;;;;14.77;52.47;97813.72;4915059;28;20201;-79
2023/05/25 06:14:55;;;;;;;6.15;3.30;;;;;;;14.95;51.91;97810.66;4928489;28;20247;-78
2023/05/25 06:17:22;;;;;;;7.88;3.10;;;;;;;14.35;52.44;97812.69;4900756;28;20265;-79
2023/05/25 06:19:48;;;;;;;5.85;3.03;;;;;;;14.26;52.50;97801.09;4920590;28;20318;-79
2023/05/25 06:22:14;;;;;;;7.03;3.78;;;;;;;14.47;51.82;97814.34;4921744;28;20274;-78
2023/05/25 06:24:39;;;;;;;6.18;3.20;;;;;;;14.41;51.44;97808.25;4926616;28;20202;-79
2023/05/25 06:27:05;;;;;;;5.13;3.30;;;;;;;14.41;51.09;97806.44;4922177;28;20233;-79
2023/05/25 06:29:30;;;;;;;8.13;3.75;;;;;;;15.00;50.13;97812.50;4919378;28;20672;-78
2023/05/25 06:31:56;;;;;;;8.60;3.40;;;;;;;14.77;50.02;97816.34;4919629;28;20185;-78
2023/05/25 06:34:21;;;;;;;8.75;3.45;;;;;;;15.23;49.73;97815.72;4912907;28;20254;-79
2023/05/25 06:36:46;;;;;;;5.32;2.67;;;;;;;15.40;48.75;97820.75;4923466;28;20283;-81
2023/05/25 06:39:13;;;;;;;5.95;3.28;;;;;;;15.24;48.58;97827.81;4928066;28;20231;-83
2023/05/25 06:41:39;;;;;;;6.03;2.80;;;;;;;15.57;48.63;97828.41;4913236;28;20705;-78
2023/05/25 06:44:05;;;;;;;5.35;2.72;;;;;;;15.64;48.45;97816.59;4928859;28;20209;-79
2023/05/25 06:46:31;;;;;;;7.40;2.50;;;;;;;15.74;47.86;97811.34;4905931;28;20202;-78
2023/05/25 06:49:00;;;;;;;5.25;2.90;;;;;;;16.12;47.84;97818.97;4911897;28;20488;-78
2023/05/25 06:51:28;;;;;;;6.88;2.60;;;;;;;16.11;47.76;97825.31;4913666;28;20188;-79
2023/05/25 06:53:54;;;;;;;5.63;3.40;;;;;;;16.13;48.41;97823.19;4922190;28;20178;-80
2023/05/25 06:56:20;;;;;;;10.90;3.25;;;;;;;16.23;47.38;97810.06;4907305;28;20288;-77
2023/05/25 06:58:45;;;;;;;6.72;3.20;;;;;;;16.29;47.02;97819.47;4915971;28;20196;-79
2023/05/25 07:01:11;;;;;;;6.40;3.30;;;;;;;16.67;46.92;97808.63;4926063;28;20065;-79
2023/05/25 07:03:37;;;;;;;4.72;2.97;;;;;;;16.85;46.78;97812.53;4909029;28;20034;-79
2023/05/25 07:06:03;;;;;;;9.40;3.10;;;;;;;16.71;45.77;97824.66;4924207;28;20217;-78
2023/05/25 07:08:29;;;;;;;5.97;2.90;;;;;;;16.54;46.33;97824.97;4912334;28;20162;-78
2023/05/25 07:10:54;;;;;;;7.45;3.47;;;;;;;15.98;46.72;97820.56;4895520;28;20193;-78
2023/05/25 07:13:20;;;;;;;6.88;2.45;;;;;;;16.39;46.82;97817.91;4912034;28;20724;-80
2023/05/25 07:15:46;;;;;;;6.18;2.78;;;;;;;16.85;46.13;97823.06;4908768;28;20224;-79
2023/05/25 07:18:11;;;;;;;6.32;2.75;;;;;;;17.11;45.15;97818.47;4911692;28;20658;-78
2023/05/25 07:20:42;;;;;;;4.72;2.63;;;;;;;16.94;45.99;97812.78;4928513;28;20195;-78
2023/05/25 07:23:08;;;;;;;6.20;3.40;;;;;;;16.99;45.00;97825.91;4930885;28;20558;-79
2023/05/25 07:25:35;;;;;;;5.15;3.53;;;;;;;16.69;44.52;97824.13;4913232;28;20646;-78
2023/05/25 07:28:01;;;;;;;7.05;3.55;;;;;;;16.77;45.50;97815.69;4915311;28;20288;-79
2023/05/25 07:30:46;;;;;;;6.45;3.00;;;;;;;17.22;43.70;97829.72;4928481;28;20030;-79
2023/05/25 07:33:11;;;;;;;4.93;2.78;;;;;;;17.14;44.20;97819.78;4919939;28;20592;-81
2023/05/25 07:35:37;;;;;;;5.18;2.70;;;;;;;17.59;44.16;97815.31;4927913;28;20591;-78
2023/05/25 07:38:06;;;;;;;6.57;2.80;;;;;;;17.93;43.82;97828.53;4907121;28;20244;-80
2023/05/25 07:40:31;;;;;;;4.47;2.60;;;;;;;17.92;43.67;97826.16;4897377;28;20107;-80
2023/05/25 07:42:57;;;;;;;6.22;2.70;;;;;;;18.06;42.12;97823.66;4909534;28;20183;-79
2023/05/25 07:45:22;;;;;;;6.97;2.97;;;;;;;18.38;42.13;97823.13;4911709;28;20189;-78
2023/05/25 07:47:47;;;;;;;6.55;2.95;;;;;;;18.36;41.70;97825.25;4912608;28;20212;-80
2023/05/25 07:50:13;;;;;;;6.10;2.67;;;;;;;18.23;41.21;97828.53;4928367;28;20284;-78
2023/05/25 07:52:39;;;;;;;5.57;2.60;;;;;;;18.36;41.38;97825.25;4901709;28;20221;-78
2023/05/25 07:55:06;;;;;;;5.22;2.80;;;;;;;18.62;41.20;97825.00;4907753;28;20656;-78
2023/05/25 07:57:31;;;;;;;5.00;2.80;;;;;;;18.50;40.98;97820.88;4923850;28;20284;-81
2023/05/25 07:59:56;;;;;;;9.02;2.90;;;;;;;18.82;40.65;97824.00;4930313;28;20204;-80
2023/05/25 08:02:22;;;;;;;6.78;2.70;;;;;;;19.01;41.40;97829.34;4904661;28;20354;-79
2023/05/25 08:04:47;;;;;;;5.68;2.53;;;;;;;19.31;40.49;97830.00;4913832;28;20616;-80
2023/05/25 08:07:12;;;;;;;4.78;2.67;;;;;;;19.60;39.70;97830.66;4910846;28;20200;-81
2023/05/25 08:09:38;;;;;;;5.18;2.50;;;;;;;19.59;39.34;97836.22;4909448;28;20710;-80
2023/05/25 08:12:04;;;;;;;9.13;2.88;;;;;;;19.01;39.40;97826.69;4907532;28;20371;-81
2023/05/25 08:14:29;;;;;;;4.65;2.65;;;;;;;19.49;39.78;97829.22;4909591;28;20208;-79
2023/05/25 08:16:54;;;;;;;6.30;2.70;;;;;;;19.42;38.90;97836.72;4928750;28;20173;-80
2023/05/25 08:19:20;;;;;;;6.05;2.95;;;;;;;19.53;38.45;97827.56;4911591;28;20404;-80
2023/05/25 08:21:45;;;;;;;6.97;2.60;;;;;;;19.35;39.28;97828.38;4907473;28;20188;-78
2023/05/25 08:24:11;;;;;;;6.20;2.65;;;;;;;20.05;38.80;97837.38;4893528;28;20284;-79
2023/05/25 08:26:37;;;;;;;5.00;2.95;;;;;;;19.86;38.16;97826.84;4912458;28;20286;-80
2023/05/25 08:29:03;;;;;;;6.43;3.20;;;;;;;19.45;39.51;97838.78;4913477;28;20183;-79
2023/05/25 08:31:31;;;;;;;5.18;3.03;;;;;;;19.92;39.38;97833.63;4910406;28;20274;-80
2023/05/25 08:33:56;;;;;;;6.80;3.00;;;;;;;19.75;38.74;97834.94;4909180;28;20200;-79
2023/05/25 08:36:23;;;;;;;6.05;3.25;;;;;;;19.80;38.32;97834.84;4910490;28;20320;-80
2023/05/25 08:38:48;;;;;;;5.25;2.65;;;;;;;20.39;39.69;97847.63;4910865;28;20792;-80
2023/05/25 08:41:14;;;;;;;5.43;2.90;;;;;;;19.94;36.68;97863.97;4909598;28;20427;-77
2023/05/25 08:43:40;;;;;;;8.98;2.97;;;;;;;19.94;37.97;97860.56;4901199;28;20212;-80
2023/05/25 08:46:06;;;;;;;5.65;2.70;;;;;;;20.06;37.06;97852.94;4909914;28;20263;-78
2023/05/25 08:48:34;;;;;;;6.97;3.70;;;;;;;19.90;37.60;97870.91;4926341;28;20195;-78
2023/05/25 08:51:01;;;;;;;5.65;3.60;;;;;;;19.97;36.12;97860.75;4910449;28;20198;-78
2023/05/25 08:53:30;;;;;;;8.63;3.60;;;;;;;20.05;37.18;97861.16;4921658;28;20259;-80
2023/05/25 08:55:56;;;;;;;7.47;3.25;;;;;;;20.25;36.18;97868.78;4911155;28;20357;-79
2023/05/25 08:58:30;;;;;;;6.28;2.97;;;;;;;20.14;36.93;97862.09;4893965;28;20158;-78
2023/05/25 09:00:58;;;;;;;5.30;2.85;;;;;;;20.42;37.45;97859.50;4906986;28;20237;-80
2023/05/25 09:03:24;;;;;;;9.10;3.45;;;;;;;20.74;37.14;97851.53;4925815;28;20257;-80
2023/05/25 09:05:49;;;;;;;6.20;3.13;;;;;;;20.87;36.54;97862.41;4910173;28;20738;-80
2023/05/25 09:08:16;;;;;;;6.85;3.40;;;;;;;21.20;37.35;97855.13;4910385;28;20094;-79
2023/05/25 09:10:41;;;;;;;7.20;3.10;;;;;;;21.33;35.71;97849.03;4910067;28;20733;-79
2023/05/25 09:13:07;;;;;;;6.57;3.10;;;;;;;21.87;36.03;97845.75;4914874;28;20368;-80
2023/05/25 09:15:32;;;;;;;7.78;3.38;;;;;;;22.02;35.68;97845.38;4931390;28;20273;-80
2023/05/25 09:17:58;;;;;;;5.97;3.30;;;;;;;22.32;35.89;97852.91;4907744;28;20291;-81
2023/05/25 09:20:30;;;;;;;7.07;3.50;;;;;;;21.80;34.92;97858.63;4911844;28;20306;-78
2023/05/25 09:22:58;;;;;;;6.95;3.17;;;;;;;21.65;35.12;97847.28;4939612;28;20297;-80
2023/05/25 09:25:26;;;;;;;5.80;3.22;;;;;;;21.19;34.98;97858.06;4928737;28;20226;-79
2023/05/25 09:27:52;;;;;;;6.47;3.40;;;;;;;21.47;35.47;97858.81;4903667;28;20099;-79
2023/05/25 09:30:17;;;;;;;5.32;3.53;;;;;;;21.56;36.26;97866.84;4926508;28;20196;-79
2023/05/25 09:32:43;;;;;;;6.97;3.30;;;;;;;21.64;35.52;97861.63;4925001;28;20614;-78
2023/05/25 09:35:12;;;;;;;4.82;3.22;;;;;;;21.99;35.12;97864.53;4932893;28;20166;-80
2023/05/25 09:37:39;;;;;;;6.22;3.40;;;;;;;22.48;34.83;97859.38;4894578;28;20252;-80
2023/05/25 09:40:06;;;;;;;5.07;3.20;;;;;;;22.19;33.51;97854.50;4892165;28;20295;-79
2023/05/25 09:42:35;;;;;;;6.32;3.35;;;;;;;22.45;34.61;97867.97;4887596;28;20290;-80
2023/05/25 09:45:04;;;;;;;5.88;3.42;;;;;;;22.45;34.46;97862.66;4907458;28;20391;-80
2023/05/25 09:47:30;;;;;;;6.63;3.33;;;;;;;22.67;32.95;97863.66;4940266;28;20231;-79
2023/05/25 09:49:56;;;;;;;6.35;3.20;;;;;;;22.03;33.00;97859.41;4920796;28;20201;-79
2023/05/25 09:52:22;;;;;;;6.45;3.08;;;;;;;22.12;33.04;97868.19;4925909;28;20686;-79
2023/05/25 09:54:49;;;;;;;6.10;3.08;;;;;;;22.18;33.45;97859.03;4894113;28;20681;-78
2023/05/25 09:57:19;;;;;;;6.75;3.20;;;;;;;22.23;33.46;97869.53;4933443;28;20292;-78
2023/05/25 09:59:44;;;;;;;5.00;3.40;;;;;;;21.84;33.36;97863.03;4911577;28;20476;-78
2023/05/25 10:02:10;;;;;;;8.27;3.33;;;;;;;22.35;33.33;97862.91;4925390;28;20806;-79
2023/05/25 10:04:49;;;;;;;6.15;3.65;;;;;;;23.02;33.75;97853.19;4917322;28;20269;-80
2023/05/25 10:07:15;;;;;;;4.78;3.47;;;;;;;23.22;33.29;97865.91;4898628;28;20426;-78
2023/05/25 10:09:42;;;;;;;9.18;3.60;;;;;;;22.92;32.49;97865.63;4914650;28;20282;-80
2023/05/25 10:12:07;;;;;;;5.03;3.42;;;;;;;23.16;33.80;97861.81;4930216;28;20299;-78
2023/05/25 10:14:36;;;;;;;6.18;3.67;;;;;;;23.51;32.99;97867.16;4914483;28;20610;-79
2023/05/25 10:17:03;;;;;;;8.73;4.03;;;;;;;23.69;32.76;97867.97;4908107;28;20281;-79
2023/05/25 10:19:36;;;;;;;5.35;3.28;;;;;;;23.54;33.05;97855.91;4930240;28;20114;-79
2023/05/25 10:22:12;;;;;;;4.95;3.25;;;;;;;23.69;31.91;97857.31;4903679;28;20276;-79
2023/05/25 10:25:01;;;;;;;4.97;3.60;;;;;;;23.55;32.42;97857.50;4928795;28;20213;-78
2023/05/25 10:27:33;;;;;;;5.93;3.22;;;;;;;23.60;32.36;97853.91;4927994;28;20248;-78
2023/05/25 10:30:00;;;;;;;5.32;3.20;;;;;;;24.07;32.14;97852.13;4920863;28;20208;-79
2023/05/25 10:32:26;;;;;;;5.10;3.45;;;;;;;23.88;31.40;97857.81;4925122;28;20250;-78
2023/05/25 10:34:51;;;;;;;6.68;3.25;;;;;;;24.19;32.00;97866.69;4894737;28;20217;-79
2023/05/25 10:37:17;;;;;;;6.72;2.97;;;;;;;23.95;32.07;97864.53;4897126;28;20678;-79
2023/05/25 10:39:43;;;;;;;7.35;3.58;;;;;;;23.56;31.13;97865.16;4915987;28;20199;-80
2023/05/25 10:42:10;;;;;;;5.22;2.95;;;;;;;24.18;31.36;97871.22;4911180;28;20188;-78
2023/05/25 10:44:35;;;;;;;6.40;3.50;;;;;;;23.88;30.11;97857.03;4927919;28;20280;-79
2023/05/25 10:47:01;;;;;;;6.90;3.45;;;;;;;24.03;31.21;97861.09;4944332;28;20301;-80
2023/05/25 10:49:34;;;;;;;6.03;3.75;;;;;;;23.74;30.50;97867.81;4930564;28;20224;-80
2023/05/25 10:52:02;;;;;;;6.85;3.70;;;;;;;23.71;31.52;97863.09;4906753;28;20669;-81
2023/05/25 10:54:32;;;;;;;7.30;3.33;;;;;;;23.96;30.53;97860.75;4911107;28;20291;-77
2023/05/25 10:57:09;;;;;;;6.25;2.90;;;;;;;23.43;30.54;97867.97;4909541;28;20268;-78
2023/05/25 10:59:35;;;;;;;5.43;3.20;;;;;;;24.25;30.53;97878.72;4926405;28;20697;-79
2023/05/25 11:02:10;;;;;;;5.45;3.28;;;;;;;24.55;29.87;97863.63;4930244;28;20174;-79
2023/05/25 11:04:36;;;;;;;5.90;3.42;;;;;;;24.52;31.41;97866.13;4903025;28;20096;-79
2023/05/25 11:07:01;;;;;;;7.03;3.80;;;;;;;24.56;30.95;97875.84;4927751;28;20200;-79
2023/05/25 11:09:30;;;;;;;6.13;3.25;;;;;;;23.85;29.79;97876.28;4903539;28;20107;-79
2023/05/25 11:11:57;;;;;;;5.25;3.17;;;;;;;23.91;29.70;97880.34;4911399;28;20738;-78
2023/05/25 11:14:29;;;;;;;5.35;2.97;;;;;;;23.45;30.37;97863.88;4930406;28;20200;-78
2023/05/25 11:17:09;;;;;;;4.55;2.92;;;;;;;23.82;29.42;97861.75;4928779;28;20586;-81
2023/05/25 11:19:50;;;;;;;4.47;3.47;;;;;;;23.75;29.21;97858.72;4914739;28;20571;-79
2023/05/25 11:22:29;;;;;;;4.95;3.25;;;;;;;23.50;29.45;97873.59;4928807;28;20247;-80
2023/05/25 11:24:57;;;;;;;4.45;3.30;;;;;;;23.03;31.47;97876.78;4909842;28;20278;-78
2023/05/25 11:27:23;;;;;;;7.97;3.03;;;;;;;22.97;32.27;97868.16;4915433;28;20295;-79
2023/05/25 11:29:52;;;;;;;8.00;3.40;;;;;;;23.26;30.39;97866.84;4939239;28;20272;-79
2023/05/25 11:32:18;;;;;;;9.63;3.35;;;;;;;22.80;31.50;97850.28;4928199;28;20275;-79